Metar Cercanos

 

LEPA - Palma De Mallorc, Spain
Distance from station: ONO 38km
Actualización: Wed, 24-Jul-2024 8:30pm CEST
Despejado
Despejado
 Viento del OSO
Viento: OSO 15 km/h
Temperatura: 28°C
Indice Calor: 31°C
Rocío: 23°C
Humedad: 74%
Barómetro: 1015 hPa
Resumen: Despejado
Visibility: greater than 10 km
2024/07/24 18:30 LEPA 241830Z 24008KT CAVOK 28/23 Q1015 NOSIG
LEMH - Mahon/Menorca Is, Spain
Distance from station: ENE 105km
Actualización: Wed, 24-Jul-2024 8:30pm CEST
Despejado
Despejado
 Viento del ENE
Viento: ENE 9 km/h
Temperatura: 27°C
Indice Calor: 28°C
Rocío: 19°C
Humedad: 62%
Barómetro: 1015 hPa
Resumen: Despejado
Visibility: greater than 10 km
2024/07/24 18:30 LEMH 241830Z 07005KT 030V100 CAVOK 27/19 Q1015
 
LEIB - Ibiza/Es Codola, Spain
Distance from station: OSO 165km
Actualización: Wed, 24-Jul-2024 8:30pm CEST
Despejado
Despejado
 Viento del SE
Viento: SE 7 km/h
Temperatura: 28°C
Indice Calor: 30°C
Rocío: 21°C
Humedad: 66%
Barómetro: 1014 hPa
Resumen: Despejado
Visibility: greater than 10 km
2024/07/24 18:30 LEIB 241830Z 14004KT 060V220 CAVOK 28/21 Q1014 NOSIG
LEBL - Barcelona Airpor, Spain
Distance from station: NNO 225km
Actualización: Wed, 24-Jul-2024 8:30pm CEST
Despejado
Despejado
 Viento del SSO
Viento: SSO 9 km/h
Temperatura: 27°C
Indice Calor: 29°C
Rocío: 21°C
Humedad: 70%
Barómetro: 1014 hPa
Resumen: Despejado
Visibility: greater than 10 km
2024/07/24 18:30 LEBL 241830Z 20005KT 170V230 CAVOK 27/21 Q1014 NOSIG
 
LEVC - Valencia (civ/Mi, Spain
Distance from station: NO 188km
Actualización: Wed, 24-Jul-2024 8:30pm CEST
Despejado
Despejado
 Viento del NE
Viento: NE 24 km/h
Temperatura: 29°C
Indice Calor: 31°C
Rocío: 21°C
Humedad: 62%
Barómetro: 1013 hPa
Resumen: Despejado
Visibility: greater than 10 km
2024/07/24 18:30 LEVC 241830Z 05013KT 020V090 CAVOK 29/21 Q1013 NOSIG
LEGE - Gerona/Costa Bra, Spain
Distance from station: N 276km
Actualización: Wed, 24-Jul-2024 8:30pm CEST
Despejado
Despejado
 Viento del SSO
Viento: SSO 9 km/h
Temperatura: 28°C
Indice Calor: 29°C
Rocío: 19°C
Humedad: 58%
Barómetro: 1015 hPa
Resumen: Despejado
Visibility: greater than 10 km
2024/07/24 18:30 LEGE 241830Z 20005KT 150V220 CAVOK 28/19 Q1015 NOSIG
 
LEAL - Alicante/El Alte, Spain
Distance from station: OSO 344km
Actualización: Wed, 24-Jul-2024 8:30pm CEST
Despejado
Despejado
 Viento del SSO
Viento: SSO 9 km/h
Temperatura: 30°C
Indice Calor: 29°C
Rocío: 15°C
Humedad: 40%
Barómetro: 1014 hPa
Resumen: Despejado
Visibility: greater than 10 km
2024/07/24 18:30 LEAL 241830Z 21005KT 170V240 CAVOK 30/15 Q1014 NOSIG
LEAM - Almeria Airport, Spain
Distance from station: SSO 56km
Actualización: Wed, 24-Jul-2024 8:30pm CEST
Despejado
Despejado
 Viento del OSO
Viento: OSO 6 km/h
Temperatura: 27°C
Indice Calor: 30°C
Rocío: 23°C
Humedad: 79%
Barómetro: 1014 hPa
Resumen: Despejado
Visibility: greater than 10 km
2024/07/24 18:30 LEAM 241830Z 24003KT 180V280 CAVOK 27/23 Q1014
 
LEZG - Zaragoza (mil/Ci, Spain
Distance from station: NO 431km
Actualización: Wed, 24-Jul-2024 8:30pm CEST
Despejado
Despejado
 Viento del ONO
Viento: ONO 22 km/h
Temperatura: 36°C
Rocío: 13°C
Humedad: 25%
Barómetro: 1013 hPa
Resumen: Despejado
Visibility: greater than 10 km
2024/07/24 18:30 LEZG 241830Z 30012KT CAVOK 36/13 Q1013 NOSIG
LEMD - Madrid/Barajas, Spain
Distance from station: ONO 234km
Actualización: Wed, 24-Jul-2024 8:30pm CEST
Despejado
Despejado
 Viento del SSO
Viento: SSO 11 km/h
Temperatura: 40°C
Rocío: 8°C
Humedad: 14%
Barómetro: 1014 hPa
Resumen: Despejado
Visibility: greater than 10 km
2024/07/24 18:30 LEMD 241830Z 20006KT 170V240 CAVOK 40/08 Q1014 NOSIG
 
LEGR - Granada Airport, Spain
Distance from station: OSO 62km
Actualización: Wed, 24-Jul-2024 8:30pm CEST
Despejado
Despejado
 Viento del O
Viento: O 19 km/h
Temperatura: 39°C
Rocío: 5°C
Humedad: 12%
Barómetro: 1016 hPa
Resumen: Despejado
Visibility: greater than 10 km
2024/07/24 18:30 LEGR 241830Z 27010KT 240V300 CAVOK 39/05 Q1016
LEMG - Malaga (civ/Mil), Spain
Distance from station: OSO 227km
Actualización: Wed, 24-Jul-2024 8:30pm CEST
Despejado
Despejado
 Viento del SE
Viento: SE 15 km/h
Temperatura: 28°C
Rocío: 12°C
Humedad: 37%
Barómetro: 1014 hPa
Resumen: Despejado
Visibility: greater than 10 km
2024/07/24 18:30 LEMG 241830Z 13008KT CAVOK 28/12 Q1014 NOSIG
 
LEZL - Sevilla (civ/Mil, Spain
Distance from station: S 318km
Actualización: Wed, 24-Jul-2024 8:30pm CEST
Despejado
Despejado
 Viento del OSO
Viento: OSO 24 km/h
Temperatura: 38°C
Rocío: 11°C
Humedad: 20%
Barómetro: 1011 hPa
Resumen: Despejado
Visibility: greater than 10 km
2024/07/24 18:30 LEZL 241830Z 24013KT CAVOK 38/11 Q1011 NOSIG
LEVT - Vitoria, Spain
Distance from station: NO 226km
Actualización: Wed, 24-Jul-2024 8:30pm CEST
Few Clouds
Few Clouds
 Viento del N
Viento: N 17 km/h
Temperatura: 22°C
Rocío: 17°C
Humedad: 73%
Barómetro: 1020 hPa
Clouds: Few Clouds
Visibility: 10 km
Cloud details: Few Clouds 549 m
2024/07/24 18:30 LEVT 241830Z 36009KT 330V040 9999 FEW018 22/17 Q1020
 
LEBB - Bilbao/Sondica, Spain
Distance from station: NNO 235km
Actualización: Wed, 24-Jul-2024 8:30pm CEST
Muy nuboso
Muy nuboso
 Viento del NE
Viento: NE 9 km/h
Temperatura: 23°C
Rocío: 19°C
Humedad: 78%
Barómetro: 1020 hPa
Clouds: Muy nuboso
Visibility: 10 km
Cloud details: Muy nuboso 792 m
2024/07/24 18:30 LEBB 241830Z 04005KT 360V070 9999 BKN026 23/19 Q1020 NOSIG
LESO - San Sebastian/Fu, Spain
Distance from station: N 231km
Actualización: Wed, 24-Jul-2024 8:30pm CEST
Cubierto
Cubierto
 Viento del N
Viento: N 7 km/h
Temperatura: 22°C
Rocío: 20°C
Humedad: 88%
Barómetro: 1019 hPa
Clouds: Cubierto
Visibility: 10 km
Cloud details: Cubierto 488 m
2024/07/24 18:30 LESO 241830Z 36004KT 320V060 9999 OVC016 22/20 Q1019
 
LEVD - Valladolid(Mil/C, Spain
Distance from station: ONO 239km
Actualización: Wed, 24-Jul-2024 8:30pm CEST
Despejado
Despejado
 Viento del N
Viento: N 9 km/h
Temperatura: 34°C
Rocío: 8°C
Humedad: 20%
Barómetro: 1017 hPa
Resumen: Despejado
Visibility: greater than 10 km
2024/07/24 18:30 LEVD 241830Z 35005KT 320V040 CAVOK 34/08 Q1017 NOSIG
LESA - Salamanca (civ/M, Spain
Distance from station: ONO 349km
Actualización: Wed, 24-Jul-2024 8:30pm CEST
Despejado
Despejado
 Viento del varies
Viento: varies 4 km/h
Temperatura: 34°C
Rocío: 17°C
Humedad: 36%
Barómetro: 1017 hPa
Resumen: Despejado
Visibility: greater than 10 km
2024/07/24 18:30 LESA 241830Z VRB02KT CAVOK 34/17 Q1017
 
LEXJ - Santander/Paraya, Spain
Distance from station: NNO 247km
Actualización: Wed, 24-Jul-2024 8:30pm CEST
Muy nuboso
Muy nuboso
 Viento del ENE
Viento: ENE 7 km/h
Temperatura: 22°C
Rocío: 19°C
Humedad: 83%
Barómetro: 1020 hPa
Clouds: Muy nuboso
Visibility: 10 km
Cloud details: Few Clouds 579 m
Muy nuboso 975 m
2024/07/24 18:30 LEXJ 241830Z 06004KT 360V120 9999 FEW019 BKN032 22/19 Q1020
LEAS - Asturias/Aviles, Spain
Distance from station: NO 214km
Actualización: Wed, 24-Jul-2024 8:30pm CEST
Muy nuboso
Muy nuboso
 Viento del E
Viento: E 13 km/h
Temperatura: 21°C
Rocío: 19°C
Humedad: 88%
Barómetro: 1020 hPa
Clouds: Muy nuboso
Visibility: 10 km
Cloud details: Muy nuboso 305 m
2024/07/24 18:30 LEAS 241830Z 10007KT 060V170 9999 BKN010 21/19 Q1020 NOSIG
 
LECO - La Coruna/Alvedr, Spain
Distance from station: ONO 222km
Actualización: Wed, 24-Jul-2024 8:30pm CEST
Despejado
Despejado
 Viento del N
Viento: N 13 km/h
Temperatura: 23°C
Rocío: 18°C
Humedad: 74%
Barómetro: 1018 hPa
Resumen: Despejado
Visibility: greater than 10 km
2024/07/24 18:30 LECO 241830Z 35007KT 300V030 CAVOK 23/18 Q1018 NOSIG
LEVX - Vigo/Peinador, Spain
Distance from station: O 214km
Actualización: Wed, 24-Jul-2024 8:30pm CEST
Despejado
Despejado
 Viento del NNE
Viento: NNE 7 km/h
Temperatura: 29°C
Indice Calor: 31°C
Rocío: 21°C
Humedad: 62%
Barómetro: 1015 hPa
Resumen: Despejado
Visibility: greater than 10 km
2024/07/24 18:30 LEVX 241830Z 03004KT 340V060 CAVOK 29/21 Q1015 NOSIG